Time;durP1;ratioP1;P1;durP2;ratioP2;P2;SDS_P1;SDS_P2;PMS_P1;PMS_P2;Temp;Humidity;BMP_temperature;BMP_pressure;BME280_temperature;BME280_humidity;BME280_pressure;Samples;Min_cycle;Max_cycle;Signal;HPM_P1;HPM_P2
2022/05/10 00:02:00;;;;;;;9.27;8.40;;;;;;;;;;5028889;28;20347;-78
2022/05/10 00:04:26;;;;;;;10.33;8.53;;;;;;;;;;5030057;28;20186;-77
2022/05/10 00:06:52;;;;;;;9.60;8.60;;;;;;;;;;5028730;28;20245;-77
2022/05/10 00:09:20;;;;;;;9.97;9.03;;;;;;;;;;5028648;28;20178;-78
2022/05/10 00:11:46;;;;;;;8.43;7.63;;;;;;;;;;5029920;28;20194;-78
2022/05/10 00:14:13;;;;;;;8.20;7.40;;;;;;;;;;5027555;28;20182;-77
2022/05/10 00:16:40;;;;;;;8.30;7.60;;;;;;;;;;5029218;28;20203;-78
2022/05/10 00:19:08;;;;;;;7.87;7.10;;;;;;;;;;5031450;28;20198;-78
2022/05/10 00:21:36;;;;;;;7.43;6.80;;;;;;;;;;5031571;28;20705;-77
2022/05/10 00:24:02;;;;;;;7.80;7.00;;;;;;;;;;5027055;28;20189;-77
2022/05/10 00:26:28;;;;;;;7.77;6.43;;;;;;;;;;5029523;28;20738;-77
2022/05/10 00:28:54;;;;;;;6.93;6.33;;;;;;;;;;5031430;28;20615;-77
2022/05/10 00:31:21;;;;;;;7.87;7.07;;;;;;;;;;5028125;28;20542;-77
2022/05/10 00:33:47;;;;;;;8.13;7.30;;;;;;;;;;5026409;28;20674;-77
2022/05/10 00:36:15;;;;;;;8.50;7.13;;;;;;;;;;5023129;28;20175;-78
2022/05/10 00:38:41;;;;;;;7.97;7.20;;;;;;;;;;5027888;28;20186;-77
2022/05/10 00:41:21;;;;;;;7.13;6.43;;;;;;;;;;5028013;28;20237;-77
2022/05/10 00:43:50;;;;;;;7.97;7.27;;;;;;;;;;5022360;28;20182;-77
2022/05/10 00:46:29;;;;;;;7.70;6.93;;;;;;;;;;5029144;28;20189;-77
2022/05/10 00:49:01;;;;;;;7.83;7.13;;;;;;;;;;5028329;28;20184;-77
2022/05/10 00:51:28;;;;;;;7.23;6.63;;;;;;;;;;5028667;28;20236;-77
2022/05/10 00:54:05;;;;;;;8.20;7.40;;;;;;;;;;5037014;28;20182;-77
2022/05/10 00:56:38;;;;;;;7.20;6.60;;;;;;;;;;5033313;28;20210;-77
2022/05/10 00:59:04;;;;;;;7.80;7.00;;;;;;;;;;5027322;28;20589;-77
2022/05/10 01:01:34;;;;;;;6.87;6.17;;;;;;;;;;5023443;28;20214;-77
2022/05/10 01:04:06;;;;;;;7.87;7.17;;;;;;;;;;5028806;28;20535;-77
2022/05/10 01:06:34;;;;;;;7.20;6.57;;;;;;;;;;5029660;28;20209;-77
2022/05/10 01:09:04;;;;;;;7.67;6.77;;;;;;;;;;5026702;28;20175;-77
2022/05/10 01:11:33;;;;;;;8.30;6.93;;;;;;;;;;5026398;28;20760;-78
2022/05/10 01:14:04;;;;;;;7.17;6.30;;;;;;;;;;5029647;28;20196;-77
2022/05/10 01:16:30;;;;;;;6.03;5.50;;;;;;;;;;5026062;28;20265;-76
2022/05/10 01:18:56;;;;;;;7.40;6.70;;;;;;;;;;5014966;28;20194;-77
2022/05/10 01:21:40;;;;;;;7.87;7.17;;;;;;;;;;5026647;28;20210;-76
2022/05/10 01:24:16;;;;;;;8.27;7.47;;;;;;;;;;5035897;28;20195;-78
2022/05/10 01:26:51;;;;;;;7.80;7.00;;;;;;;;;;5027633;28;20202;-77
2022/05/10 01:29:20;;;;;;;7.40;6.70;;;;;;;;;;5024986;28;20166;-78
2022/05/10 01:33:29;;;;;;;6.73;6.13;;;;;;;;;;5029922;28;20179;-77
2022/05/10 01:34:35;;;;;;;7.10;6.50;;;;;;;;;;5022813;28;20197;-78
2022/05/10 01:37:04;;;;;;;9.27;7.47;;;;;;;;;;5023866;28;20226;-77
2022/05/10 01:39:56;;;;;;;7.47;6.87;;;;;;;;;;5025167;28;20194;-77
2022/05/10 01:42:26;;;;;;;7.60;6.90;;;;;;;;;;5004203;28;20245;-77
2022/05/10 01:45:12;;;;;;;7.40;6.77;;;;;;;;;;5029159;28;20190;-77
2022/05/10 01:47:41;;;;;;;7.77;7.07;;;;;;;;;;5024945;28;20763;-77
2022/05/10 01:50:19;;;;;;;8.50;7.80;;;;;;;;;;5027742;28;20193;-77
2022/05/10 01:53:20;;;;;;;6.87;6.27;;;;;;;;;;5020488;28;20220;-77
2022/05/10 01:55:48;;;;;;;8.57;7.40;;;;;;;;;;5021998;28;20609;-77
2022/05/10 01:58:15;;;;;;;7.53;6.83;;;;;;;;;;5018516;28;20277;-77
2022/05/10 02:00:44;;;;;;;10.60;7.73;;;;;;;;;;5030951;28;20209;-76
2022/05/10 02:03:13;;;;;;;7.63;6.93;;;;;;;;;;5028939;28;20225;-77
2022/05/10 02:05:44;;;;;;;7.20;6.53;;;;;;;;;;5011069;28;20192;-77
2022/05/10 02:08:25;;;;;;;7.00;6.40;;;;;;;;;;5018483;28;20649;-78
2022/05/10 02:10:53;;;;;;;7.40;6.70;;;;;;;;;;5028271;28;20190;-76
2022/05/10 02:13:25;;;;;;;7.23;6.47;;;;;;;;;;5024926;28;20248;-78
2022/05/10 02:15:57;;;;;;;6.77;6.17;;;;;;;;;;5028108;28;20189;-77
2022/05/10 02:18:27;;;;;;;6.97;6.30;;;;;;;;;;5027888;28;20218;-77
2022/05/10 02:20:56;;;;;;;8.27;7.57;;;;;;;;;;5030616;28;20187;-77
2022/05/10 02:23:22;;;;;;;7.00;6.30;;;;;;;;;;5029677;28;20194;-77
2022/05/10 02:25:53;;;;;;;7.77;7.03;;;;;;;;;;5030380;28;20205;-77
2022/05/10 02:28:38;;;;;;;8.20;7.40;;;;;;;;;;5028023;28;20885;-77
2022/05/10 02:31:07;;;;;;;6.53;5.93;;;;;;;;;;5022774;28;20555;-77
2022/05/10 02:33:34;;;;;;;6.83;6.17;;;;;;;;;;5027842;28;20620;-77
2022/05/10 02:36:01;;;;;;;7.70;7.10;;;;;;;;;;5017637;28;20566;-78
2022/05/10 02:38:37;;;;;;;7.53;6.67;;;;;;;;;;5030928;28;20667;-77
2022/05/10 02:41:05;;;;;;;6.90;6.30;;;;;;;;;;5032937;28;20263;-77
2022/05/10 02:43:43;;;;;;;7.10;6.43;;;;;;;;;;5028905;28;20206;-77
2022/05/10 02:46:09;;;;;;;7.23;6.53;;;;;;;;;;5029107;28;20273;-77
2022/05/10 02:48:38;;;;;;;6.73;6.13;;;;;;;;;;5028772;28;20186;-79
2022/05/10 02:51:05;;;;;;;6.87;6.23;;;;;;;;;;5035326;28;20670;-77
2022/05/10 02:53:31;;;;;;;7.63;6.93;;;;;;;;;;5025766;28;20206;-76
2022/05/10 02:56:05;;;;;;;7.97;7.07;;;;;;;;;;5030393;28;20265;-77
2022/05/10 02:58:37;;;;;;;7.30;6.57;;;;;;;;;;5031248;28;20553;-76
2022/05/10 03:01:07;;;;;;;6.73;6.20;;;;;;;;;;5027406;28;20330;-77
2022/05/10 03:03:33;;;;;;;6.97;6.27;;;;;;;;;;5030679;28;20195;-77
2022/05/10 03:06:02;;;;;;;7.70;7.00;;;;;;;;;;5034823;28;20190;-77
2022/05/10 03:08:29;;;;;;;8.27;7.50;;;;;;;;;;5033325;28;20208;-77
2022/05/10 03:10:55;;;;;;;7.90;7.20;;;;;;;;;;5033926;28;20170;-77
2022/05/10 03:13:21;;;;;;;8.73;7.83;;;;;;;;;;5029312;28;20190;-77
2022/05/10 03:15:47;;;;;;;8.50;7.75;;;;;;;;;;5031246;28;20452;-77
2022/05/10 03:18:13;;;;;;;8.23;7.03;;;;;;;;;;5029681;28;20202;-77
2022/05/10 03:20:39;;;;;;;7.73;6.93;;;;;;;;;;5031200;28;20630;-77
2022/05/10 03:23:07;;;;;;;7.63;6.93;;;;;;;;;;5033730;28;20209;-77
2022/05/10 03:25:33;;;;;;;8.27;7.47;;;;;;;;;;5026860;28;20206;-77
2022/05/10 03:28:00;;;;;;;9.60;8.60;;;;;;;;;;5023948;28;20210;-77
2022/05/10 03:30:29;;;;;;;8.60;7.90;;;;;;;;;;5026574;28;20206;-76
2022/05/10 03:32:55;;;;;;;9.53;8.73;;;;;;;;;;5028259;28;20197;-77
2022/05/10 03:35:22;;;;;;;10.20;9.20;;;;;;;;;;5032974;28;20232;-77
2022/05/10 03:37:49;;;;;;;9.73;8.30;;;;;;;;;;5026447;28;20333;-77
2022/05/10 03:40:15;;;;;;;10.07;9.27;;;;;;;;;;5029120;28;20182;-77
2022/05/10 03:42:49;;;;;;;10.40;9.50;;;;;;;;;;5029382;28;20210;-77
2022/05/10 03:45:16;;;;;;;9.43;8.63;;;;;;;;;;5030871;28;20182;-77
2022/05/10 03:47:42;;;;;;;8.47;7.70;;;;;;;;;;5019922;28;20206;-78
2022/05/10 03:50:09;;;;;;;11.67;9.40;;;;;;;;;;5032270;28;20175;-77
2022/05/10 03:52:37;;;;;;;10.07;9.03;;;;;;;;;;5013353;28;20183;-77
2022/05/10 03:55:03;;;;;;;9.43;8.53;;;;;;;;;;5021874;28;20183;-76
2022/05/10 03:57:29;;;;;;;10.07;9.17;;;;;;;;;;5031216;28;20206;-77
2022/05/10 03:59:55;;;;;;;11.43;10.33;;;;;;;;;;5028158;28;20194;-77
2022/05/10 04:02:22;;;;;;;10.60;9.60;;;;;;;;;;5028191;28;20551;-77
2022/05/10 04:04:48;;;;;;;10.40;9.50;;;;;;;;;;5032407;28;20185;-77
2022/05/10 04:07:23;;;;;;;11.67;9.93;;;;;;;;;;5031468;28;20232;-77
2022/05/10 04:09:49;;;;;;;12.50;11.30;;;;;;;;;;5031437;28;20258;-78
2022/05/10 04:12:15;;;;;;;12.60;11.30;;;;;;;;;;5030763;28;20186;-77
2022/05/10 04:14:41;;;;;;;12.73;11.37;;;;;;;;;;5032615;28;20210;-75
2022/05/10 04:17:07;;;;;;;10.93;9.90;;;;;;;;;;5026907;28;20202;-77
2022/05/10 04:19:33;;;;;;;11.37;10.37;;;;;;;;;;5026461;28;20222;-76
2022/05/10 04:21:59;;;;;;;11.00;10.00;;;;;;;;;;5031040;28;20241;-77
2022/05/10 04:24:26;;;;;;;11.90;10.80;;;;;;;;;;5023527;28;20261;-77
2022/05/10 04:26:52;;;;;;;12.23;11.13;;;;;;;;;;5026407;28;20202;-77
2022/05/10 04:29:18;;;;;;;12.27;10.90;;;;;;;;;;5022604;28;20183;-77
2022/05/10 04:31:44;;;;;;;13.17;11.60;;;;;;;;;;5022436;28;20194;-76
2022/05/10 04:34:10;;;;;;;12.60;11.40;;;;;;;;;;5029639;28;20182;-77
2022/05/10 04:36:36;;;;;;;13.23;10.53;;;;;;;;;;5027951;28;20229;-77
2022/05/10 04:39:03;;;;;;;11.97;10.77;;;;;;;;;;5025875;28;20187;-77
2022/05/10 04:41:31;;;;;;;12.57;11.37;;;;;;;;;;5028650;28;20317;-77
2022/05/10 04:43:59;;;;;;;10.87;9.87;;;;;;;;;;5028690;28;20187;-77
2022/05/10 04:46:30;;;;;;;12.20;10.90;;;;;;;;;;5032085;28;20680;-77
2022/05/10 04:48:56;;;;;;;10.73;9.63;;;;;;;;;;5022465;28;20265;-77
2022/05/10 04:51:23;;;;;;;11.70;10.60;;;;;;;;;;5028638;28;20175;-77
2022/05/10 04:53:49;;;;;;;10.40;9.33;;;;;;;;;;5031492;28;20269;-76
2022/05/10 04:56:15;;;;;;;10.73;9.63;;;;;;;;;;5031815;28;20187;-76
2022/05/10 04:58:41;;;;;;;11.00;10.00;;;;;;;;;;5017672;28;20190;-77
2022/05/10 05:01:08;;;;;;;10.43;9.53;;;;;;;;;;5026850;28;20186;-77
2022/05/10 05:03:35;;;;;;;11.07;9.93;;;;;;;;;;5022100;28;20183;-82
2022/05/10 05:06:01;;;;;;;11.27;10.17;;;;;;;;;;5020134;28;20186;-81
2022/05/10 05:08:28;;;;;;;10.27;9.37;;;;;;;;;;5032091;28;20608;-80
2022/05/10 05:10:56;;;;;;;12.00;10.60;;;;;;;;;;5032830;28;20166;-80
2022/05/10 05:13:23;;;;;;;9.67;8.77;;;;;;;;;;5023870;28;20258;-79
2022/05/10 05:15:49;;;;;;;10.23;9.33;;;;;;;;;;5030185;28;20175;-79
2022/05/10 05:18:15;;;;;;;11.53;9.93;;;;;;;;;;5030557;28;20194;-79
2022/05/10 05:20:43;;;;;;;10.63;9.60;;;;;;;;;;5029118;28;20190;-79
2022/05/10 05:23:09;;;;;;;12.07;10.47;;;;;;;;;;5031157;28;20212;-79
2022/05/10 05:25:40;;;;;;;10.57;9.57;;;;;;;;;;5030746;28;20175;-78
2022/05/10 05:28:07;;;;;;;11.13;10.17;;;;;;;;;;5032600;28;20190;-80
2022/05/10 05:30:33;;;;;;;11.50;10.40;;;;;;;;;;5026779;28;20282;-78
2022/05/10 05:33:00;;;;;;;13.43;12.23;;;;;;;;;;5025916;28;20178;-82
2022/05/10 05:35:26;;;;;;;13.03;10.53;;;;;;;;;;5027782;28;20186;-81
2022/05/10 05:37:54;;;;;;;11.37;10.20;;;;;;;;;;5031747;28;20202;-79
2022/05/10 05:40:20;;;;;;;10.10;9.10;;;;;;;;;;5029277;28;20193;-78
2022/05/10 05:42:47;;;;;;;9.87;8.90;;;;;;;;;;5027830;28;20674;-79
2022/05/10 05:45:14;;;;;;;11.33;8.87;;;;;;;;;;5027502;28;20662;-79
2022/05/10 05:47:40;;;;;;;13.03;10.37;;;;;;;;;;5031849;28;20582;-78
2022/05/10 05:50:07;;;;;;;11.63;9.97;;;;;;;;;;5025971;28;20178;-79
2022/05/10 05:52:33;;;;;;;9.53;8.63;;;;;;;;;;5027398;28;20190;-79
2022/05/10 05:54:59;;;;;;;10.03;9.03;;;;;;;;;;5030243;28;20195;-79
2022/05/10 05:57:26;;;;;;;10.80;8.97;;;;;;;;;;5029269;28;20635;-78
2022/05/10 05:59:55;;;;;;;10.43;9.43;;;;;;;;;;5023201;28;20274;-79
2022/05/10 06:02:23;;;;;;;9.60;8.63;;;;;;;;;;5029491;28;20207;-79
2022/05/10 06:04:50;;;;;;;9.10;8.23;;;;;;;;;;5025277;28;20284;-79
2022/05/10 06:07:16;;;;;;;9.50;8.47;;;;;;;;;;5028976;28;21976;-79
2022/05/10 06:09:43;;;;;;;11.17;8.83;;;;;;;;;;5023182;28;20178;-79
2022/05/10 06:12:10;;;;;;;10.60;9.00;;;;;;;;;;5030787;28;20265;-79
2022/05/10 06:14:37;;;;;;;9.00;8.10;;;;;;;;;;5032625;28;20202;-79
2022/05/10 06:17:04;;;;;;;9.80;8.77;;;;;;;;;;5031908;28;20566;-79
2022/05/10 06:19:30;;;;;;;10.53;8.50;;;;;;;;;;5030040;28;20194;-79
2022/05/10 06:21:57;;;;;;;9.13;8.33;;;;;;;;;;5030370;28;20213;-79
2022/05/10 06:24:24;;;;;;;10.13;8.87;;;;;;;;;;5031014;28;20179;-79
2022/05/10 06:26:50;;;;;;;9.97;9.07;;;;;;;;;;5028072;28;20206;-79
2022/05/10 06:29:16;;;;;;;10.63;8.97;;;;;;;;;;5029879;28;20175;-79
2022/05/10 06:31:43;;;;;;;9.60;8.57;;;;;;;;;;5030357;28;20195;-79
2022/05/10 06:34:10;;;;;;;9.60;8.67;;;;;;;;;;5030351;28;20194;-79
2022/05/10 06:36:37;;;;;;;8.97;8.17;;;;;;;;;;5031650;28;20275;-79
2022/05/10 06:39:03;;;;;;;10.77;9.53;;;;;;;;;;5028918;28;20218;-79
2022/05/10 06:41:33;;;;;;;9.80;8.90;;;;;;;;;;5027793;28;20222;-79
2022/05/10 06:43:59;;;;;;;9.97;9.00;;;;;;;;;;5030252;28;20273;-79
2022/05/10 06:46:27;;;;;;;9.30;8.50;;;;;;;;;;5029139;28;20596;-79
2022/05/10 06:48:53;;;;;;;10.03;8.67;;;;;;;;;;5026403;28;20589;-79
2022/05/10 06:51:21;;;;;;;9.97;8.97;;;;;;;;;;5022994;28;20213;-78
2022/05/10 06:53:48;;;;;;;11.27;10.13;;;;;;;;;;5026019;28;20248;-78
2022/05/10 06:56:14;;;;;;;11.43;10.33;;;;;;;;;;5024111;28;20255;-77
2022/05/10 06:58:40;;;;;;;12.23;10.53;;;;;;;;;;5025406;28;20201;-79
2022/05/10 07:01:11;;;;;;;11.87;10.67;;;;;;;;;;5022367;28;20175;-79
2022/05/10 07:03:39;;;;;;;12.27;11.17;;;;;;;;;;5031760;28;20183;-78
2022/05/10 07:06:06;;;;;;;13.43;12.03;;;;;;;;;;5033728;28;20175;-77
2022/05/10 07:08:33;;;;;;;13.53;11.43;;;;;;;;;;5031238;28;20256;-78
2022/05/10 07:10:59;;;;;;;15.70;12.10;;;;;;;;;;5034074;28;20795;-78
2022/05/10 07:13:28;;;;;;;15.03;13.00;;;;;;;;;;5030048;28;20195;-77
2022/05/10 07:15:57;;;;;;;13.57;12.27;;;;;;;;;;5031668;28;20210;-78
2022/05/10 07:18:23;;;;;;;13.93;12.53;;;;;;;;;;5029017;28;20226;-78
2022/05/10 07:20:51;;;;;;;13.53;12.20;;;;;;;;;;5018692;28;20221;-78
2022/05/10 07:23:21;;;;;;;15.17;13.60;;;;;;;;;;5018743;28;20290;-78
2022/05/10 07:25:48;;;;;;;13.80;12.50;;;;;;;;;;5023436;28;20237;-78
2022/05/10 07:28:14;;;;;;;14.40;12.90;;;;;;;;;;5031799;28;20203;-78
2022/05/10 07:30:56;;;;;;;14.37;11.83;;;;;;;;;;5029858;28;20194;-78
2022/05/10 07:33:22;;;;;;;14.67;12.23;;;;;;;;;;5026974;28;20176;-77
2022/05/10 07:38:36;;;;;;;12.63;11.43;;;;;;;;;;5023800;28;20194;-78
2022/05/10 07:41:02;;;;;;;15.97;11.97;;;;;;;;;;5029168;28;20179;-79
2022/05/10 07:43:28;;;;;;;12.97;11.57;;;;;;;;;;5027861;28;20279;-76
2022/05/10 07:46:00;;;;;;;12.70;11.53;;;;;;;;;;5027326;28;20610;-76
2022/05/10 07:48:26;;;;;;;16.90;12.37;;;;;;;;;;5029153;28;20248;-77
2022/05/10 07:50:53;;;;;;;13.93;12.53;;;;;;;;;;5030875;28;20178;-77
2022/05/10 07:53:19;;;;;;;14.83;13.27;;;;;;;;;;5026718;28;20189;-77
2022/05/10 07:55:45;;;;;;;14.13;12.53;;;;;;;;;;5024662;28;20179;-78
2022/05/10 07:58:12;;;;;;;15.33;13.60;;;;;;;;;;5031601;28;20206;-78
2022/05/10 08:00:39;;;;;;;15.83;12.80;;;;;;;;;;5017042;28;20201;-77
2022/05/10 08:03:12;;;;;;;14.57;13.10;;;;;;;;;;5029531;28;20217;-77
2022/05/10 08:05:39;;;;;;;14.83;13.20;;;;;;;;;;5030230;28;20254;-77
2022/05/10 08:08:06;;;;;;;15.07;13.53;;;;;;;;;;5032091;28;20718;-77
2022/05/10 08:10:33;;;;;;;17.57;12.83;;;;;;;;;;5016278;28;20176;-77
2022/05/10 08:13:00;;;;;;;19.37;13.73;;;;;;;;;;5034632;28;20194;-77
2022/05/10 08:15:26;;;;;;;17.60;14.00;;;;;;;;;;5024268;28;20218;-77
2022/05/10 08:17:54;;;;;;;17.43;13.97;;;;;;;;;;5029682;28;20206;-77
2022/05/10 08:20:23;;;;;;;17.20;12.93;;;;;;;;;;5023975;28;20183;-77
2022/05/10 08:22:49;;;;;;;12.93;11.63;;;;;;;;;;5014329;28;20241;-77
2022/05/10 08:25:15;;;;;;;14.07;12.43;;;;;;;;;;5027521;28;20182;-77
2022/05/10 08:27:41;;;;;;;14.17;12.73;;;;;;;;;;5030746;28;20206;-77
2022/05/10 08:30:07;;;;;;;12.87;11.57;;;;;;;;;;5029614;28;20182;-77
2022/05/10 08:32:34;;;;;;;12.83;11.60;;;;;;;;;;5027657;28;20240;-77
2022/05/10 08:35:01;;;;;;;12.20;11.00;;;;;;;;;;5027334;28;20190;-77
2022/05/10 08:37:27;;;;;;;13.97;11.90;;;;;;;;;;5029563;28;20214;-77
2022/05/10 08:39:53;;;;;;;13.60;12.13;;;;;;;;;;5027830;28;20182;-77
2022/05/10 08:42:24;;;;;;;13.90;10.97;;;;;;;;;;5032652;28;20678;-77
2022/05/10 08:44:57;;;;;;;11.40;10.33;;;;;;;;;;5026556;28;20174;-77
2022/05/10 08:47:25;;;;;;;11.10;9.90;;;;;;;;;;5028034;28;20741;-77
2022/05/10 08:49:51;;;;;;;12.07;10.97;;;;;;;;;;5022827;28;20170;-77
2022/05/10 08:52:18;;;;;;;12.00;10.10;;;;;;;;;;5024314;28;20198;-77
2022/05/10 08:54:44;;;;;;;11.83;10.60;;;;;;;;;;5025107;28;20182;-77
2022/05/10 08:57:10;;;;;;;13.13;9.10;;;;;;;;;;5029400;28;20673;-77
2022/05/10 09:00:06;;;;;;;10.13;9.00;;;;;;;;;;5011785;28;20283;-77
2022/05/10 09:02:37;;;;;;;10.47;8.30;;;;;;;;;;5022985;28;20832;-77
2022/05/10 09:05:11;;;;;;;11.27;8.40;;;;;;;;;;5024836;28;20206;-77
2022/05/10 09:07:45;;;;;;;9.13;8.13;;;;;;;;;;5030034;28;20843;-77
2022/05/10 09:10:20;;;;;;;10.63;7.70;;;;;;;;;;5019906;28;20282;-77
2022/05/10 09:12:50;;;;;;;9.17;8.23;;;;;;;;;;5024832;28;20252;-77
2022/05/10 09:15:19;;;;;;;8.67;7.90;;;;;;;;;;5027521;28;20182;-77
2022/05/10 09:17:46;;;;;;;10.97;6.97;;;;;;;;;;5021282;28;20202;-77
2022/05/10 09:20:13;;;;;;;7.60;6.97;;;;;;;;;;5030225;28;20585;-77
2022/05/10 09:22:53;;;;;;;8.37;7.43;;;;;;;;;;5029189;28;20249;-77
2022/05/10 09:25:31;;;;;;;7.63;6.80;;;;;;;;;;5030834;28;20174;-77
2022/05/10 09:27:59;;;;;;;11.80;7.17;;;;;;;;;;5029101;28;20202;-77
2022/05/10 09:30:27;;;;;;;7.70;6.90;;;;;;;;;;5018567;28;20651;-77
2022/05/10 09:35:52;;;;;;;7.73;7.03;;;;;;;;;;5026993;28;20678;-79
2022/05/10 09:38:19;;;;;;;7.57;6.90;;;;;;;;;;5026294;28;20206;-78
2022/05/10 09:40:46;;;;;;;7.50;6.53;;;;;;;;;;5023865;28;20650;-79
2022/05/10 09:43:33;;;;;;;7.20;6.60;;;;;;;;;;5024041;28;20252;-80
2022/05/10 09:46:13;;;;;;;7.87;7.13;;;;;;;;;;5031064;28;20274;-79
2022/05/10 09:48:42;;;;;;;11.23;7.07;;;;;;;;;;5034059;28;20195;-79
2022/05/10 09:51:35;;;;;;;6.80;6.03;;;;;;;;;;5035260;28;20182;-80
2022/05/10 09:54:03;;;;;;;8.03;6.90;;;;;;;;;;5035000;28;20175;-80
2022/05/10 09:56:59;;;;;;;7.63;6.90;;;;;;;;;;4997155;28;20219;-78
2022/05/10 09:59:39;;;;;;;7.10;6.40;;;;;;;;;;5024089;28;20195;-78
2022/05/10 10:02:05;;;;;;;9.07;7.07;;;;;;;;;;5042298;28;20780;-80
2022/05/10 10:04:32;;;;;;;7.87;7.07;;;;;;;;;;5034536;28;20420;-77
2022/05/10 10:07:16;;;;;;;8.93;7.10;;;;;;;;;;5030438;28;20279;-78
2022/05/10 10:09:45;;;;;;;7.70;7.00;;;;;;;;;;5036411;28;20643;-79
2022/05/10 10:12:27;;;;;;;8.53;6.80;;;;;;;;;;5034595;28;20205;-80
2022/05/10 10:14:55;;;;;;;8.63;7.07;;;;;;;;;;5030717;28;20246;-78
2022/05/10 10:17:24;;;;;;;7.23;6.63;;;;;;;;;;5026009;28;20318;-79
2022/05/10 10:19:52;;;;;;;6.90;6.30;;;;;;;;;;5030154;28;20501;-79
2022/05/10 10:22:37;;;;;;;7.23;6.53;;;;;;;;;;5032930;28;20206;-78
2022/05/10 10:25:14;;;;;;;9.57;7.30;;;;;;;;;;5033334;28;20183;-78
2022/05/10 10:27:44;;;;;;;7.23;6.53;;;;;;;;;;5032392;28;20219;-79
2022/05/10 10:30:13;;;;;;;7.57;6.87;;;;;;;;;;5028681;28;20194;-79
2022/05/10 10:32:45;;;;;;;7.50;6.90;;;;;;;;;;5024163;28;20207;-79
2022/05/10 10:35:14;;;;;;;7.70;6.87;;;;;;;;;;5022228;28;20191;-79
2022/05/10 10:37:51;;;;;;;8.07;7.37;;;;;;;;;;5031117;28;20924;-78
2022/05/10 10:40:36;;;;;;;7.13;6.53;;;;;;;;;;5029886;28;20183;-79
2022/05/10 10:43:09;;;;;;;8.00;7.20;;;;;;;;;;5031367;28;20213;-79
2022/05/10 10:45:36;;;;;;;8.93;6.87;;;;;;;;;;5021450;28;20651;-78
2022/05/10 10:48:17;;;;;;;6.70;6.20;;;;;;;;;;5038106;28;20228;-79
2022/05/10 10:50:43;;;;;;;7.47;6.73;;;;;;;;;;5029729;28;20650;-77
2022/05/10 10:53:11;;;;;;;8.03;7.23;;;;;;;;;;5030595;28;20171;-80
2022/05/10 10:55:43;;;;;;;7.80;7.10;;;;;;;;;;5032752;28;20193;-79
2022/05/10 10:58:21;;;;;;;7.40;6.70;;;;;;;;;;5029858;28;20294;-79
2022/05/10 11:00:53;;;;;;;9.73;6.40;;;;;;;;;;5026860;28;20225;-79
2022/05/10 11:03:31;;;;;;;6.97;6.37;;;;;;;;;;5036877;28;20222;-82
2022/05/10 11:06:04;;;;;;;7.30;6.70;;;;;;;;;;5027407;28;20182;-77
2022/05/10 11:08:49;;;;;;;6.70;6.10;;;;;;;;;;5025356;28;20186;-79
2022/05/10 11:11:32;;;;;;;6.63;6.13;;;;;;;;;;5035285;28;20236;-79
2022/05/10 11:14:02;;;;;;;7.00;6.30;;;;;;;;;;5031442;28;20186;-80
2022/05/10 11:16:28;;;;;;;6.47;5.93;;;;;;;;;;5024735;28;20218;-78
2022/05/10 11:19:06;;;;;;;8.00;5.63;;;;;;;;;;5026426;28;20187;-78
2022/05/10 11:21:51;;;;;;;7.63;6.60;;;;;;;;;;5032443;28;20221;-79
2022/05/10 11:24:22;;;;;;;7.17;6.47;;;;;;;;;;5024241;28;20186;-79
2022/05/10 11:26:57;;;;;;;8.23;6.50;;;;;;;;;;5036191;28;20237;-76
2022/05/10 11:29:29;;;;;;;6.47;5.87;;;;;;;;;;5029689;28;20228;-76
2022/05/10 11:31:58;;;;;;;7.50;6.10;;;;;;;;;;5033078;28;20198;-79
2022/05/10 11:34:31;;;;;;;6.60;5.90;;;;;;;;;;5022730;28;20204;-78
2022/05/10 11:37:01;;;;;;;7.13;6.47;;;;;;;;;;5034493;28;20229;-79
2022/05/10 11:39:27;;;;;;;7.67;6.30;;;;;;;;;;5026543;28;20281;-76
2022/05/10 11:42:08;;;;;;;6.43;5.83;;;;;;;;;;5029947;28;20666;-77
2022/05/10 11:45:18;;;;;;;5.97;5.37;;;;;;;;;;5027135;28;20201;-80
2022/05/10 11:48:00;;;;;;;6.37;5.10;;;;;;;;;;5023870;28;20677;-79
2022/05/10 11:51:38;;;;;;;6.03;5.30;;;;;;;;;;5031021;28;20218;-79
2022/05/10 11:53:52;;;;;;;6.40;5.80;;;;;;;;;;5032181;28;20191;-79
2022/05/10 11:56:18;;;;;;;5.73;5.23;;;;;;;;;;5028525;28;20208;-79
2022/05/10 11:58:45;;;;;;;5.87;5.37;;;;;;;;;;5031689;28;20192;-79
2022/05/10 12:01:12;;;;;;;6.00;5.50;;;;;;;;;;5036474;28;20191;-79
2022/05/10 12:03:49;;;;;;;7.03;5.63;;;;;;;;;;5034837;28;20651;-79
2022/05/10 12:06:24;;;;;;;6.17;5.60;;;;;;;;;;5034188;28;20712;-79
2022/05/10 12:09:01;;;;;;;6.63;6.03;;;;;;;;;;5027399;28;20179;-79
2022/05/10 12:11:30;;;;;;;6.80;6.07;;;;;;;;;;5033752;28;20580;-79
2022/05/10 12:22:17;;;;;;;7.93;5.83;;;;;;;;;;5028689;28;20205;-78
2022/05/10 12:24:45;;;;;;;6.03;5.53;;;;;;;;;;5034608;28;20200;-82
2022/05/10 12:27:32;;;;;;;5.70;5.20;;;;;;;;;;5034472;28;20287;-78
2022/05/10 12:29:58;;;;;;;6.53;6.03;;;;;;;;;;5028081;28;20308;-77
2022/05/10 12:32:37;;;;;;;6.10;5.60;;;;;;;;;;5032288;28;20211;-78
2022/05/10 12:35:04;;;;;;;6.30;5.80;;;;;;;;;;5025538;28;20194;-77
2022/05/10 12:37:31;;;;;;;6.03;5.53;;;;;;;;;;5021316;28;20840;-78
2022/05/10 12:40:04;;;;;;;6.30;5.63;;;;;;;;;;5025749;28;20200;-78
2022/05/10 12:43:15;;;;;;;5.80;5.30;;;;;;;;;;5006854;28;20838;-78
2022/05/10 12:45:44;;;;;;;5.37;4.87;;;;;;;;;;5030137;28;20202;-78
2022/05/10 12:48:29;;;;;;;5.50;5.00;;;;;;;;;;5025452;28;20256;-78
2022/05/10 12:51:11;;;;;;;5.47;4.97;;;;;;;;;;5029781;28;20585;-78
2022/05/10 12:53:40;;;;;;;6.87;5.17;;;;;;;;;;5031718;28;20215;-78
2022/05/10 12:56:15;;;;;;;5.83;5.00;;;;;;;;;;5027345;28;20199;-78
2022/05/10 12:58:44;;;;;;;5.37;4.80;;;;;;;;;;5034708;28;20273;-78
2022/05/10 13:01:13;;;;;;;4.87;4.47;;;;;;;;;;5026523;28;20198;-78
2022/05/10 13:03:45;;;;;;;5.50;5.00;;;;;;;;;;5022868;28;20212;-78
2022/05/10 13:06:22;;;;;;;5.33;4.83;;;;;;;;;;5031130;28;20551;-78
2022/05/10 13:08:50;;;;;;;5.17;4.70;;;;;;;;;;5028262;28;20190;-78
2022/05/10 13:11:18;;;;;;;5.93;4.50;;;;;;;;;;5023559;28;20182;-79
2022/05/10 13:13:45;;;;;;;5.20;4.80;;;;;;;;;;5028318;28;20621;-79
2022/05/10 13:16:17;;;;;;;5.10;4.57;;;;;;;;;;5031080;28;20184;-78
2022/05/10 13:18:43;;;;;;;5.00;4.50;;;;;;;;;;5017018;28;20187;-78
2022/05/10 13:21:09;;;;;;;8.57;5.00;;;;;;;;;;5019909;28;20632;-79
2022/05/10 13:23:36;;;;;;;5.30;4.80;;;;;;;;;;5019969;28;20254;-79
2022/05/10 13:26:06;;;;;;;5.47;4.97;;;;;;;;;;5031680;28;20187;-78
2022/05/10 13:28:33;;;;;;;5.87;5.27;;;;;;;;;;5024012;28;20265;-78
2022/05/10 13:31:01;;;;;;;5.53;5.07;;;;;;;;;;5025500;28;20195;-78
2022/05/10 13:33:35;;;;;;;5.73;5.23;;;;;;;;;;5026312;28;20554;-78
2022/05/10 13:36:05;;;;;;;5.50;4.67;;;;;;;;;;5022506;28;20547;-79
2022/05/10 13:38:35;;;;;;;7.07;5.07;;;;;;;;;;5028203;28;20196;-79
2022/05/10 13:41:07;;;;;;;5.70;5.13;;;;;;;;;;5030678;28;20178;-79
2022/05/10 13:43:35;;;;;;;5.37;4.87;;;;;;;;;;5017217;28;20224;-79
2022/05/10 13:46:04;;;;;;;4.97;4.47;;;;;;;;;;5017461;28;20182;-79
2022/05/10 13:48:32;;;;;;;8.67;5.10;;;;;;;;;;5024812;28;20647;-79
2022/05/10 13:51:16;;;;;;;5.60;5.07;;;;;;;;;;5025520;28;20235;-79
2022/05/10 13:53:43;;;;;;;5.40;4.90;;;;;;;;;;5025472;28;20189;-79
2022/05/10 13:56:16;;;;;;;6.47;5.10;;;;;;;;;;5024529;28;20214;-79
2022/05/10 13:58:46;;;;;;;5.63;5.00;;;;;;;;;;5025572;28;20199;-79
2022/05/10 14:01:13;;;;;;;5.07;4.67;;;;;;;;;;5019420;28;20187;-79
2022/05/10 14:03:40;;;;;;;5.70;5.17;;;;;;;;;;5012757;28;22104;-79
2022/05/10 14:06:11;;;;;;;10.83;4.90;;;;;;;;;;5017265;28;20599;-79
2022/05/10 14:08:40;;;;;;;5.13;4.73;;;;;;;;;;5026037;28;20194;-79
2022/05/10 14:11:09;;;;;;;6.23;4.33;;;;;;;;;;5014081;28;20185;-78
2022/05/10 14:13:42;;;;;;;5.30;4.90;;;;;;;;;;5012837;28;20188;-78
2022/05/10 14:16:10;;;;;;;5.30;4.80;;;;;;;;;;5019137;28;22015;-76
2022/05/10 14:18:38;;;;;;;5.70;5.20;;;;;;;;;;5016434;28;20187;-75
2022/05/10 14:21:24;;;;;;;5.30;4.83;;;;;;;;;;5026306;28;20189;-74
2022/05/10 14:23:52;;;;;;;5.30;4.63;;;;;;;;;;5025459;28;20187;-74
2022/05/10 14:26:43;;;;;;;5.17;4.77;;;;;;;;;;5016229;28;20191;-74
2022/05/10 14:29:11;;;;;;;5.00;4.50;;;;;;;;;;5021440;28;20261;-74
2022/05/10 14:31:38;;;;;;;7.20;4.70;;;;;;;;;;5027374;28;20265;-74
2022/05/10 14:34:05;;;;;;;4.83;4.37;;;;;;;;;;5031115;28;20236;-74
2022/05/10 14:36:38;;;;;;;4.90;4.50;;;;;;;;;;5033453;28;20242;-74
2022/05/10 14:39:23;;;;;;;5.10;4.40;;;;;;;;;;5039635;28;20194;-74
2022/05/10 14:42:25;;;;;;;5.23;4.40;;;;;;;;;;5026661;28;20242;-74
2022/05/10 14:44:53;;;;;;;4.20;3.80;;;;;;;;;;5023516;28;20256;-74
2022/05/10 14:47:21;;;;;;;4.67;4.00;;;;;;;;;;5019838;28;20228;-74
2022/05/10 14:49:50;;;;;;;6.00;4.10;;;;;;;;;;5006974;28;20201;-75
2022/05/10 14:52:25;;;;;;;4.67;4.20;;;;;;;;;;5007930;28;20271;-74
2022/05/10 14:54:51;;;;;;;4.47;4.07;;;;;;;;;;5020583;28;20195;-74
2022/05/10 14:57:20;;;;;;;5.20;4.23;;;;;;;;;;5025253;28;20213;-74
2022/05/10 14:59:54;;;;;;;6.67;4.27;;;;;;;;;;5024394;28;20202;-74
2022/05/10 15:02:29;;;;;;;4.03;3.70;;;;;;;;;;5028125;28;20681;-74
2022/05/10 15:04:56;;;;;;;4.80;3.60;;;;;;;;;;5025596;28;20178;-74
2022/05/10 15:07:23;;;;;;;4.77;4.27;;;;;;;;;;5025848;28;20211;-74
2022/05/10 15:09:49;;;;;;;4.53;3.77;;;;;;;;;;5032332;28;20555;-75